CheckWX is a tool to help pilots better visualize weather data.  It is not intended as a substitute for an official pre-flight weather briefing.

14:48:01 UTC

14Y METAR
Todd Field Airport
Long Prairie, Minnesota, USA
Current

13 mins ago

K14Y 231435Z AUTO 19004KT 10SM CLR 00/M02 A3019 RMK AO2
Observed
Mar-23 @ 14:35 UTC
Wind
  • 190° at 4 KTS
Visibility
10 SM
Flight Rules
VFR
Cloud Levels
  • Clear skies
Temperature
C / 32°F
Dewpoint
-2°C / 28°F
Humidity
87%
Altimeter
30.19" Hg
Pressure
1022.32 hPa
Previous

33 mins ago

K14Y 231415Z AUTO 19004KT 10SM CLR M01/M03 A3019 RMK AO2
Observed
Mar-23 @ 14:15 UTC
Wind
  • 190° at 4 KTS
Visibility
10 SM
Flight Rules
VFR
Cloud Levels
  • Clear skies
Temperature
-1°C / 30°F
Dewpoint
-3°C / 27°F
Humidity
86%
Altimeter
30.19" Hg
Pressure
1022.32 hPa
Previous

53 mins ago

K14Y 231355Z AUTO 00000KT 7SM CLR M02/M03 A3019 RMK AO2
Observed
Mar-23 @ 13:55 UTC
Visibility
7 SM
Flight Rules
VFR
Cloud Levels
  • Clear skies
Temperature
-2°C / 28°F
Dewpoint
-3°C / 27°F
Humidity
93%
Altimeter
30.19" Hg
Pressure
1022.32 hPa